sensor_id;sensor_type;location;lat;lon;timestamp;temperature;humidity
64255;DHT22;50593;44.748;19.692;2022-08-11T00:00:12;28.90;45.90
64255;DHT22;50593;44.748;19.692;2022-08-11T00:00:54;28.90;46.00
64255;DHT22;50593;44.748;19.692;2022-08-11T00:01:18;28.90;46.00
64255;DHT22;50593;44.748;19.692;2022-08-11T00:01:43;28.90;46.00
64255;DHT22;50593;44.748;19.692;2022-08-11T00:02:04;29.00;46.00
64255;DHT22;50593;44.748;19.692;2022-08-11T00:02:29;28.90;45.90
64255;DHT22;50593;44.748;19.692;2022-08-11T00:02:51;28.90;46.00
64255;DHT22;50593;44.748;19.692;2022-08-11T00:03:12;28.90;46.20
64255;DHT22;50593;44.748;19.692;2022-08-11T00:03:33;28.90;46.10
64255;DHT22;50593;44.748;19.692;2022-08-11T00:04:16;28.90;46.10
64255;DHT22;50593;44.748;19.692;2022-08-11T00:05:01;28.90;46.10
64255;DHT22;50593;44.748;19.692;2022-08-11T00:05:22;28.90;46.00
64255;DHT22;50593;44.748;19.692;2022-08-11T00:05:46;28.90;46.10
64255;DHT22;50593;44.748;19.692;2022-08-11T00:06:06;28.90;46.00
64255;DHT22;50593;44.748;19.692;2022-08-11T00:06:48;28.90;46.30
64255;DHT22;50593;44.748;19.692;2022-08-11T00:07:09;28.90;46.50
64255;DHT22;50593;44.748;19.692;2022-08-11T00:07:30;28.90;46.40
64255;DHT22;50593;44.748;19.692;2022-08-11T00:08:22;28.90;46.60
64255;DHT22;50593;44.748;19.692;2022-08-11T00:08:43;28.90;46.50
64255;DHT22;50593;44.748;19.692;2022-08-11T00:09:14;28.90;46.20
64255;DHT22;50593;44.748;19.692;2022-08-11T00:09:36;28.90;46.50
64255;DHT22;50593;44.748;19.692;2022-08-11T00:10:19;28.90;46.40
64255;DHT22;50593;44.748;19.692;2022-08-11T00:10:40;28.90;46.30
64255;DHT22;50593;44.748;19.692;2022-08-11T00:11:02;28.90;46.60
64255;DHT22;50593;44.748;19.692;2022-08-11T00:11:37;28.90;46.40
64255;DHT22;50593;44.748;19.692;2022-08-11T00:11:58;28.90;46.40
64255;DHT22;50593;44.748;19.692;2022-08-11T00:12:19;28.90;46.50
64255;DHT22;50593;44.748;19.692;2022-08-11T00:12:40;28.90;46.30
64255;DHT22;50593;44.748;19.692;2022-08-11T00:13:03;28.80;46.50
64255;DHT22;50593;44.748;19.692;2022-08-11T00:13:35;28.80;46.60
64255;DHT22;50593;44.748;19.692;2022-08-11T00:13:56;28.90;46.60
64255;DHT22;50593;44.748;19.692;2022-08-11T00:14:20;28.80;46.20
64255;DHT22;50593;44.748;19.692;2022-08-11T00:14:41;28.80;46.50
64255;DHT22;50593;44.748;19.692;2022-08-11T00:15:02;28.90;46.80
64255;DHT22;50593;44.748;19.692;2022-08-11T00:15:23;28.90;46.80
64255;DHT22;50593;44.748;19.692;2022-08-11T00:15:44;28.80;46.80
64255;DHT22;50593;44.748;19.692;2022-08-11T00:16:10;28.80;47.20
64255;DHT22;50593;44.748;19.692;2022-08-11T00:16:31;28.90;47.10
64255;DHT22;50593;44.748;19.692;2022-08-11T00:16:56;28.90;47.10
64255;DHT22;50593;44.748;19.692;2022-08-11T00:17:17;28.90;47.10
64255;DHT22;50593;44.748;19.692;2022-08-11T00:17:38;28.80;46.70
64255;DHT22;50593;44.748;19.692;2022-08-11T00:17:59;28.80;46.80
64255;DHT22;50593;44.748;19.692;2022-08-11T00:18:20;28.80;47.20
64255;DHT22;50593;44.748;19.692;2022-08-11T00:18:42;28.80;47.30
64255;DHT22;50593;44.748;19.692;2022-08-11T00:19:03;28.90;47.30
64255;DHT22;50593;44.748;19.692;2022-08-11T00:19:25;28.80;47.40
64255;DHT22;50593;44.748;19.692;2022-08-11T00:19:47;28.90;47.50
64255;DHT22;50593;44.748;19.692;2022-08-11T00:20:09;28.90;47.50
64255;DHT22;50593;44.748;19.692;2022-08-11T00:20:30;28.80;47.50
64255;DHT22;50593;44.748;19.692;2022-08-11T00:20:51;28.90;47.50
64255;DHT22;50593;44.748;19.692;2022-08-11T00:21:18;28.80;47.50
64255;DHT22;50593;44.748;19.692;2022-08-11T00:22:21;28.80;47.50
64255;DHT22;50593;44.748;19.692;2022-08-11T00:22:45;28.80;47.50
64255;DHT22;50593;44.748;19.692;2022-08-11T00:23:07;28.80;47.50
64255;DHT22;50593;44.748;19.692;2022-08-11T00:23:28;28.90;47.70
64255;DHT22;50593;44.748;19.692;2022-08-11T00:24:02;28.80;47.60
64255;DHT22;50593;44.748;19.692;2022-08-11T00:24:23;28.80;47.60
64255;DHT22;50593;44.748;19.692;2022-08-11T00:24:44;28.80;47.60
64255;DHT22;50593;44.748;19.692;2022-08-11T00:25:12;28.80;47.60
64255;DHT22;50593;44.748;19.692;2022-08-11T00:25:38;28.80;47.70
64255;DHT22;50593;44.748;19.692;2022-08-11T00:25:59;28.80;47.70
64255;DHT22;50593;44.748;19.692;2022-08-11T00:26:20;28.80;47.70
64255;DHT22;50593;44.748;19.692;2022-08-11T00:26:46;28.80;47.70
64255;DHT22;50593;44.748;19.692;2022-08-11T00:27:06;28.90;47.80
64255;DHT22;50593;44.748;19.692;2022-08-11T00:27:48;28.80;47.70
64255;DHT22;50593;44.748;19.692;2022-08-11T00:28:41;28.80;47.80
64255;DHT22;50593;44.748;19.692;2022-08-11T00:29:16;28.80;47.90
64255;DHT22;50593;44.748;19.692;2022-08-11T00:29:58;28.80;47.90
64255;DHT22;50593;44.748;19.692;2022-08-11T00:30:18;28.80;47.90
64255;DHT22;50593;44.748;19.692;2022-08-11T00:30:39;28.80;47.90
64255;DHT22;50593;44.748;19.692;2022-08-11T00:31:22;28.80;47.90
64255;DHT22;50593;44.748;19.692;2022-08-11T00:31:45;28.80;47.80
64255;DHT22;50593;44.748;19.692;2022-08-11T00:32:06;28.80;48.00
64255;DHT22;50593;44.748;19.692;2022-08-11T00:32:32;28.80;47.90
64255;DHT22;50593;44.748;19.692;2022-08-11T00:32:54;28.80;47.90
64255;DHT22;50593;44.748;19.692;2022-08-11T00:33:40;28.80;47.90
64255;DHT22;50593;44.748;19.692;2022-08-11T00:34:01;28.80;47.90
64255;DHT22;50593;44.748;19.692;2022-08-11T00:34:25;28.80;48.00
64255;DHT22;50593;44.748;19.692;2022-08-11T00:34:46;28.80;48.00
64255;DHT22;50593;44.748;19.692;2022-08-11T00:35:07;28.80;48.00
64255;DHT22;50593;44.748;19.692;2022-08-11T00:35:30;28.80;48.00
64255;DHT22;50593;44.748;19.692;2022-08-11T00:35:51;28.80;48.00
64255;DHT22;50593;44.748;19.692;2022-08-11T00:36:16;28.80;48.00
64255;DHT22;50593;44.748;19.692;2022-08-11T00:37:39;28.80;48.10
64255;DHT22;50593;44.748;19.692;2022-08-11T00:38:04;28.80;48.10
64255;DHT22;50593;44.748;19.692;2022-08-11T00:38:32;28.80;48.10
64255;DHT22;50593;44.748;19.692;2022-08-11T00:38:54;28.80;48.20
64255;DHT22;50593;44.748;19.692;2022-08-11T00:39:22;28.80;48.20
64255;DHT22;50593;44.748;19.692;2022-08-11T00:39:45;28.80;48.20
64255;DHT22;50593;44.748;19.692;2022-08-11T00:40:07;28.80;48.20
64255;DHT22;50593;44.748;19.692;2022-08-11T00:40:49;28.80;48.30
64255;DHT22;50593;44.748;19.692;2022-08-11T00:43:21;28.70;48.20
64255;DHT22;50593;44.748;19.692;2022-08-11T00:47:26;28.70;48.40
64255;DHT22;50593;44.748;19.692;2022-08-11T00:48:24;28.70;48.30
64255;DHT22;50593;44.748;19.692;2022-08-11T00:52:09;28.80;48.40
64255;DHT22;50593;44.748;19.692;2022-08-11T00:52:37;28.80;48.50
64255;DHT22;50593;44.748;19.692;2022-08-11T00:54:26;28.80;48.60
64255;DHT22;50593;44.748;19.692;2022-08-11T00:58:11;28.70;49.80
64255;DHT22;50593;44.748;19.692;2022-08-11T00:59:23;28.70;49.60
64255;DHT22;50593;44.748;19.692;2022-08-11T01:00:14;28.80;49.60
64255;DHT22;50593;44.748;19.692;2022-08-11T01:02:17;28.70;49.30
64255;DHT22;50593;44.748;19.692;2022-08-11T01:10:22;28.80;48.60
64255;DHT22;50593;44.748;19.692;2022-08-11T01:11:47;28.80;48.50
64255;DHT22;50593;44.748;19.692;2022-08-11T01:12:18;28.80;48.30
64255;DHT22;50593;44.748;19.692;2022-08-11T01:13:49;28.80;48.30
64255;DHT22;50593;44.748;19.692;2022-08-11T01:16:45;28.80;48.10
64255;DHT22;50593;44.748;19.692;2022-08-11T01:25:38;28.90;47.80
64255;DHT22;50593;44.748;19.692;2022-08-11T01:28:47;28.90;47.40
64255;DHT22;50593;44.748;19.692;2022-08-11T01:30:46;29.00;48.40
64255;DHT22;50593;44.748;19.692;2022-08-11T01:32:55;28.90;47.90
64255;DHT22;50593;44.748;19.692;2022-08-11T01:33:58;28.90;49.10
64255;DHT22;50593;44.748;19.692;2022-08-11T01:38:20;28.90;48.80
64255;DHT22;50593;44.748;19.692;2022-08-11T01:39:07;28.90;48.80
64255;DHT22;50593;44.748;19.692;2022-08-11T01:39:57;28.90;48.80
64255;DHT22;50593;44.748;19.692;2022-08-11T01:42:23;29.00;48.90
64255;DHT22;50593;44.748;19.692;2022-08-11T01:43:44;29.00;48.90
64255;DHT22;50593;44.748;19.692;2022-08-11T01:45:06;29.00;49.10
64255;DHT22;50593;44.748;19.692;2022-08-11T01:46:33;29.00;48.70
64255;DHT22;50593;44.748;19.692;2022-08-11T01:49:57;29.00;48.40
64255;DHT22;50593;44.748;19.692;2022-08-11T01:50:56;29.00;48.30
64255;DHT22;50593;44.748;19.692;2022-08-11T01:54:23;29.00;47.90
64255;DHT22;50593;44.748;19.692;2022-08-11T01:54:55;29.00;47.80
64255;DHT22;50593;44.748;19.692;2022-08-11T01:55:21;29.00;47.80
64255;DHT22;50593;44.748;19.692;2022-08-11T01:56:37;29.00;47.70
64255;DHT22;50593;44.748;19.692;2022-08-11T01:57:15;29.00;47.60
64255;DHT22;50593;44.748;19.692;2022-08-11T01:58:56;29.00;47.50
64255;DHT22;50593;44.748;19.692;2022-08-11T01:59:20;29.00;47.60
64255;DHT22;50593;44.748;19.692;2022-08-11T01:59:48;29.00;47.60
64255;DHT22;50593;44.748;19.692;2022-08-11T02:00:12;29.00;47.60
64255;DHT22;50593;44.748;19.692;2022-08-11T02:00:34;29.00;47.60
64255;DHT22;50593;44.748;19.692;2022-08-11T02:01:14;29.00;47.70
64255;DHT22;50593;44.748;19.692;2022-08-11T02:03:57;29.00;48.10
64255;DHT22;50593;44.748;19.692;2022-08-11T02:06:13;28.90;48.00
64255;DHT22;50593;44.748;19.692;2022-08-11T02:07:09;28.90;48.00
64255;DHT22;50593;44.748;19.692;2022-08-11T02:07:39;28.90;47.90
64255;DHT22;50593;44.748;19.692;2022-08-11T02:09:12;28.90;47.90
64255;DHT22;50593;44.748;19.692;2022-08-11T02:11:50;28.90;47.90
64255;DHT22;50593;44.748;19.692;2022-08-11T02:12:38;28.90;47.90
64255;DHT22;50593;44.748;19.692;2022-08-11T02:13:02;28.90;47.90
64255;DHT22;50593;44.748;19.692;2022-08-11T02:14:23;28.90;47.90
64255;DHT22;50593;44.748;19.692;2022-08-11T02:16:00;28.90;47.90
64255;DHT22;50593;44.748;19.692;2022-08-11T02:16:50;28.80;47.80
64255;DHT22;50593;44.748;19.692;2022-08-11T02:17:48;28.80;47.70
64255;DHT22;50593;44.748;19.692;2022-08-11T02:18:31;28.80;47.80
64255;DHT22;50593;44.748;19.692;2022-08-11T02:23:03;28.80;47.90
64255;DHT22;50593;44.748;19.692;2022-08-11T02:24:35;28.80;47.90
64255;DHT22;50593;44.748;19.692;2022-08-11T02:25:34;28.80;47.80
64255;DHT22;50593;44.748;19.692;2022-08-11T02:26:10;28.80;47.90
64255;DHT22;50593;44.748;19.692;2022-08-11T02:26:40;28.80;47.80
64255;DHT22;50593;44.748;19.692;2022-08-11T02:27:07;28.80;47.80
64255;DHT22;50593;44.748;19.692;2022-08-11T02:27:35;28.70;47.80
64255;DHT22;50593;44.748;19.692;2022-08-11T02:29:23;28.70;47.80
64255;DHT22;50593;44.748;19.692;2022-08-11T02:30:00;28.70;47.70
64255;DHT22;50593;44.748;19.692;2022-08-11T02:30:28;28.80;47.80
64255;DHT22;50593;44.748;19.692;2022-08-11T02:30:56;28.80;47.90
64255;DHT22;50593;44.748;19.692;2022-08-11T02:32:23;28.80;47.80
64255;DHT22;50593;44.748;19.692;2022-08-11T02:33:22;28.80;47.80
64255;DHT22;50593;44.748;19.692;2022-08-11T02:33:47;28.70;47.70
64255;DHT22;50593;44.748;19.692;2022-08-11T02:36:21;28.70;47.80
64255;DHT22;50593;44.748;19.692;2022-08-11T02:36:48;28.70;47.70
64255;DHT22;50593;44.748;19.692;2022-08-11T02:38:32;28.70;47.80
64255;DHT22;50593;44.748;19.692;2022-08-11T02:39:05;28.70;47.80
64255;DHT22;50593;44.748;19.692;2022-08-11T02:39:28;28.70;47.70
64255;DHT22;50593;44.748;19.692;2022-08-11T02:40:27;28.70;47.60
64255;DHT22;50593;44.748;19.692;2022-08-11T02:41:01;28.70;47.60
64255;DHT22;50593;44.748;19.692;2022-08-11T02:43:06;28.70;47.70
64255;DHT22;50593;44.748;19.692;2022-08-11T02:43:35;28.70;47.70
64255;DHT22;50593;44.748;19.692;2022-08-11T02:44:33;28.70;47.60
64255;DHT22;50593;44.748;19.692;2022-08-11T02:45:39;28.70;47.60
64255;DHT22;50593;44.748;19.692;2022-08-11T02:46:17;28.70;47.60
64255;DHT22;50593;44.748;19.692;2022-08-11T02:47:26;28.70;47.60
64255;DHT22;50593;44.748;19.692;2022-08-11T02:49:35;28.70;47.50
64255;DHT22;50593;44.748;19.692;2022-08-11T02:50:12;28.60;47.60
64255;DHT22;50593;44.748;19.692;2022-08-11T02:50:38;28.70;47.80
64255;DHT22;50593;44.748;19.692;2022-08-11T02:52:28;28.70;47.80
64255;DHT22;50593;44.748;19.692;2022-08-11T02:53:02;28.70;47.80
64255;DHT22;50593;44.748;19.692;2022-08-11T02:56:11;28.70;47.40
64255;DHT22;50593;44.748;19.692;2022-08-11T02:56:50;28.70;47.40
64255;DHT22;50593;44.748;19.692;2022-08-11T02:57:15;28.70;47.40
64255;DHT22;50593;44.748;19.692;2022-08-11T02:57:40;28.70;47.30
64255;DHT22;50593;44.748;19.692;2022-08-11T03:00:12;28.70;47.00
64255;DHT22;50593;44.748;19.692;2022-08-11T03:00:35;28.80;47.10
64255;DHT22;50593;44.748;19.692;2022-08-11T03:01:11;28.70;46.90
64255;DHT22;50593;44.748;19.692;2022-08-11T03:01:40;28.70;46.90
64255;DHT22;50593;44.748;19.692;2022-08-11T03:03:28;28.80;46.90
64255;DHT22;50593;44.748;19.692;2022-08-11T03:04:17;28.80;46.80
64255;DHT22;50593;44.748;19.692;2022-08-11T03:04:44;28.80;46.70
64255;DHT22;50593;44.748;19.692;2022-08-11T03:06:49;28.80;46.70
64255;DHT22;50593;44.748;19.692;2022-08-11T03:07:20;28.80;46.60
64255;DHT22;50593;44.748;19.692;2022-08-11T03:08:46;28.80;46.60
64255;DHT22;50593;44.748;19.692;2022-08-11T03:09:23;28.80;46.60
64255;DHT22;50593;44.748;19.692;2022-08-11T03:09:49;28.80;46.50
64255;DHT22;50593;44.748;19.692;2022-08-11T03:12:33;28.80;46.50
64255;DHT22;50593;44.748;19.692;2022-08-11T03:13:18;28.80;46.50
64255;DHT22;50593;44.748;19.692;2022-08-11T03:15:40;28.80;46.40
64255;DHT22;50593;44.748;19.692;2022-08-11T03:18:22;28.80;46.50
64255;DHT22;50593;44.748;19.692;2022-08-11T03:19:00;28.80;46.30
64255;DHT22;50593;44.748;19.692;2022-08-11T03:20:44;28.90;46.30
64255;DHT22;50593;44.748;19.692;2022-08-11T03:21:12;28.80;46.20
64255;DHT22;50593;44.748;19.692;2022-08-11T03:21:41;28.80;46.10
64255;DHT22;50593;44.748;19.692;2022-08-11T03:22:11;28.80;46.10
64255;DHT22;50593;44.748;19.692;2022-08-11T03:22:44;28.80;46.00
64255;DHT22;50593;44.748;19.692;2022-08-11T03:23:13;28.80;46.10
64255;DHT22;50593;44.748;19.692;2022-08-11T03:24:00;28.80;46.10
64255;DHT22;50593;44.748;19.692;2022-08-11T03:25:18;28.80;46.00
64255;DHT22;50593;44.748;19.692;2022-08-11T03:25:55;28.90;46.10
64255;DHT22;50593;44.748;19.692;2022-08-11T03:26:24;28.80;46.00
64255;DHT22;50593;44.748;19.692;2022-08-11T03:26:51;28.80;46.00
64255;DHT22;50593;44.748;19.692;2022-08-11T03:29:26;28.90;46.00
64255;DHT22;50593;44.748;19.692;2022-08-11T03:29:29;28.90;46.00
64255;DHT22;50593;44.748;19.692;2022-08-11T03:30:09;28.90;46.00
64255;DHT22;50593;44.748;19.692;2022-08-11T03:30:53;28.90;45.90
64255;DHT22;50593;44.748;19.692;2022-08-11T03:32:27;28.90;45.90
64255;DHT22;50593;44.748;19.692;2022-08-11T03:32:57;28.90;45.90
64255;DHT22;50593;44.748;19.692;2022-08-11T03:33:49;28.90;45.80
64255;DHT22;50593;44.748;19.692;2022-08-11T03:34:24;28.80;45.70
64255;DHT22;50593;44.748;19.692;2022-08-11T03:34:45;28.90;45.80
64255;DHT22;50593;44.748;19.692;2022-08-11T03:36:54;28.90;45.80
64255;DHT22;50593;44.748;19.692;2022-08-11T03:37:23;28.80;45.70
64255;DHT22;50593;44.748;19.692;2022-08-11T03:38:05;28.90;45.90
64255;DHT22;50593;44.748;19.692;2022-08-11T03:38:28;28.80;45.80
64255;DHT22;50593;44.748;19.692;2022-08-11T03:39:21;28.80;45.80
64255;DHT22;50593;44.748;19.692;2022-08-11T03:41:20;28.80;45.90
64255;DHT22;50593;44.748;19.692;2022-08-11T03:43:01;28.80;46.00
64255;DHT22;50593;44.748;19.692;2022-08-11T03:43:51;28.80;46.00
64255;DHT22;50593;44.748;19.692;2022-08-11T03:45:34;28.80;46.00
64255;DHT22;50593;44.748;19.692;2022-08-11T03:48:09;28.80;46.00
64255;DHT22;50593;44.748;19.692;2022-08-11T03:49:20;28.80;46.10
64255;DHT22;50593;44.748;19.692;2022-08-11T03:50:02;28.80;46.10
64255;DHT22;50593;44.748;19.692;2022-08-11T03:51:05;28.80;46.10
64255;DHT22;50593;44.748;19.692;2022-08-11T03:52:17;28.80;46.10
64255;DHT22;50593;44.748;19.692;2022-08-11T03:52:52;28.70;46.10
64255;DHT22;50593;44.748;19.692;2022-08-11T04:03:06;28.60;46.00
64255;DHT22;50593;44.748;19.692;2022-08-11T04:06:53;28.60;46.00
64255;DHT22;50593;44.748;19.692;2022-08-11T04:14:21;28.60;46.00
64255;DHT22;50593;44.748;19.692;2022-08-11T04:20:42;28.60;45.90
64255;DHT22;50593;44.748;19.692;2022-08-11T04:24:57;28.50;45.90
64255;DHT22;50593;44.748;19.692;2022-08-11T04:25:48;28.60;45.90
64255;DHT22;50593;44.748;19.692;2022-08-11T04:26:29;28.60;45.90
64255;DHT22;50593;44.748;19.692;2022-08-11T04:28:35;28.50;45.80
64255;DHT22;50593;44.748;19.692;2022-08-11T04:29:46;28.50;45.80
64255;DHT22;50593;44.748;19.692;2022-08-11T04:30:56;28.50;45.90
64255;DHT22;50593;44.748;19.692;2022-08-11T04:32:09;28.50;45.90
64255;DHT22;50593;44.748;19.692;2022-08-11T04:33:10;28.50;45.90
64255;DHT22;50593;44.748;19.692;2022-08-11T04:36:36;28.60;45.80
64255;DHT22;50593;44.748;19.692;2022-08-11T04:39:46;28.60;45.50
64255;DHT22;50593;44.748;19.692;2022-08-11T04:50:08;28.70;45.00
64255;DHT22;50593;44.748;19.692;2022-08-11T04:51:20;28.70;45.00
64255;DHT22;50593;44.748;19.692;2022-08-11T04:53:18;28.70;44.90
64255;DHT22;50593;44.748;19.692;2022-08-11T04:54:03;28.70;44.90
64255;DHT22;50593;44.748;19.692;2022-08-11T04:54:53;28.70;44.90
64255;DHT22;50593;44.748;19.692;2022-08-11T04:56:23;28.70;44.80
64255;DHT22;50593;44.748;19.692;2022-08-11T04:57:07;28.70;44.80
64255;DHT22;50593;44.748;19.692;2022-08-11T04:59:22;28.70;44.70
64255;DHT22;50593;44.748;19.692;2022-08-11T05:00:11;28.70;44.70
64255;DHT22;50593;44.748;19.692;2022-08-11T05:00:57;28.70;44.70
64255;DHT22;50593;44.748;19.692;2022-08-11T05:02:22;28.70;44.70
64255;DHT22;50593;44.748;19.692;2022-08-11T05:03:41;28.70;44.60
64255;DHT22;50593;44.748;19.692;2022-08-11T05:05:18;28.70;44.50
64255;DHT22;50593;44.748;19.692;2022-08-11T05:06:28;28.70;44.50
64255;DHT22;50593;44.748;19.692;2022-08-11T05:07:06;28.70;44.50
64255;DHT22;50593;44.748;19.692;2022-08-11T05:09:03;28.70;44.40
64255;DHT22;50593;44.748;19.692;2022-08-11T05:09:28;28.80;44.50
64255;DHT22;50593;44.748;19.692;2022-08-11T05:10:59;28.70;44.40
64255;DHT22;50593;44.748;19.692;2022-08-11T05:11:42;28.80;44.40
64255;DHT22;50593;44.748;19.692;2022-08-11T05:12:15;28.80;44.40
64255;DHT22;50593;44.748;19.692;2022-08-11T05:13:00;28.80;44.40
64255;DHT22;50593;44.748;19.692;2022-08-11T05:14:26;28.80;44.40
64255;DHT22;50593;44.748;19.692;2022-08-11T05:15:10;28.80;44.40
64255;DHT22;50593;44.748;19.692;2022-08-11T05:16:31;28.80;44.40
64255;DHT22;50593;44.748;19.692;2022-08-11T05:17:13;28.70;44.30
64255;DHT22;50593;44.748;19.692;2022-08-11T05:17:58;28.70;44.40
64255;DHT22;50593;44.748;19.692;2022-08-11T05:18:44;28.70;44.40
64255;DHT22;50593;44.748;19.692;2022-08-11T05:19:23;28.70;44.40
64255;DHT22;50593;44.748;19.692;2022-08-11T05:20:02;28.70;44.50
64255;DHT22;50593;44.748;19.692;2022-08-11T05:20:44;28.70;44.50
64255;DHT22;50593;44.748;19.692;2022-08-11T05:21:23;28.70;44.50
64255;DHT22;50593;44.748;19.692;2022-08-11T05:22:04;28.70;44.60
64255;DHT22;50593;44.748;19.692;2022-08-11T05:22:47;28.70;44.60
64255;DHT22;50593;44.748;19.692;2022-08-11T05:23:27;28.70;44.60
64255;DHT22;50593;44.748;19.692;2022-08-11T05:24:24;28.70;44.50
64255;DHT22;50593;44.748;19.692;2022-08-11T05:25:10;28.70;44.60
64255;DHT22;50593;44.748;19.692;2022-08-11T05:25:51;28.70;44.60
64255;DHT22;50593;44.748;19.692;2022-08-11T05:26:38;28.70;44.60
64255;DHT22;50593;44.748;19.692;2022-08-11T05:27:20;28.70;44.60
64255;DHT22;50593;44.748;19.692;2022-08-11T05:28:14;28.60;44.60
64255;DHT22;50593;44.748;19.692;2022-08-11T05:28:55;28.70;44.60
64255;DHT22;50593;44.748;19.692;2022-08-11T05:30:58;28.60;44.60
64255;DHT22;50593;44.748;19.692;2022-08-11T05:31:40;28.60;44.60
64255;DHT22;50593;44.748;19.692;2022-08-11T05:32:21;28.60;44.60
64255;DHT22;50593;44.748;19.692;2022-08-11T05:33:47;28.60;44.60
64255;DHT22;50593;44.748;19.692;2022-08-11T05:35:05;28.60;44.70
64255;DHT22;50593;44.748;19.692;2022-08-11T05:35:48;28.60;44.60
64255;DHT22;50593;44.748;19.692;2022-08-11T05:36:33;28.60;44.60
64255;DHT22;50593;44.748;19.692;2022-08-11T05:37:01;28.60;44.60
64255;DHT22;50593;44.748;19.692;2022-08-11T05:38:24;28.60;44.60
64255;DHT22;50593;44.748;19.692;2022-08-11T05:39:06;28.60;44.70
64255;DHT22;50593;44.748;19.692;2022-08-11T05:39:50;28.60;44.70
64255;DHT22;50593;44.748;19.692;2022-08-11T05:40:30;28.60;44.70
64255;DHT22;50593;44.748;19.692;2022-08-11T05:41:50;28.60;44.70
64255;DHT22;50593;44.748;19.692;2022-08-11T05:42:37;28.60;44.70
64255;DHT22;50593;44.748;19.692;2022-08-11T05:43:17;28.60;44.80
64255;DHT22;50593;44.748;19.692;2022-08-11T05:44:00;28.50;44.70
64255;DHT22;50593;44.748;19.692;2022-08-11T05:44:43;28.60;44.80
64255;DHT22;50593;44.748;19.692;2022-08-11T05:45:22;28.50;44.70
64255;DHT22;50593;44.748;19.692;2022-08-11T05:46:02;28.50;44.70
64255;DHT22;50593;44.748;19.692;2022-08-11T05:46:42;28.50;44.70
64255;DHT22;50593;44.748;19.692;2022-08-11T05:47:25;28.60;44.80
64255;DHT22;50593;44.748;19.692;2022-08-11T05:48:04;28.50;44.80
64255;DHT22;50593;44.748;19.692;2022-08-11T05:48:43;28.50;44.70
64255;DHT22;50593;44.748;19.692;2022-08-11T05:49:22;28.60;44.80
64255;DHT22;50593;44.748;19.692;2022-08-11T05:50:02;28.50;44.70
64255;DHT22;50593;44.748;19.692;2022-08-11T05:50:52;28.50;44.80
64255;DHT22;50593;44.748;19.692;2022-08-11T05:51:33;28.50;44.80
64255;DHT22;50593;44.748;19.692;2022-08-11T05:52:13;28.50;44.80
64255;DHT22;50593;44.748;19.692;2022-08-11T05:52:53;28.50;44.80
64255;DHT22;50593;44.748;19.692;2022-08-11T05:53:32;28.50;44.80
64255;DHT22;50593;44.748;19.692;2022-08-11T05:54:13;28.50;44.70
64255;DHT22;50593;44.748;19.692;2022-08-11T05:54:53;28.50;44.70
64255;DHT22;50593;44.748;19.692;2022-08-11T05:55:42;28.50;44.70
64255;DHT22;50593;44.748;19.692;2022-08-11T05:56:21;28.50;44.80
64255;DHT22;50593;44.748;19.692;2022-08-11T05:56:46;28.50;44.70
64255;DHT22;50593;44.748;19.692;2022-08-11T05:57:08;28.50;44.70
64255;DHT22;50593;44.748;19.692;2022-08-11T05:58:08;28.50;44.70
64255;DHT22;50593;44.748;19.692;2022-08-11T05:58:50;28.50;44.70
64255;DHT22;50593;44.748;19.692;2022-08-11T05:59:11;28.50;44.70
64255;DHT22;50593;44.748;19.692;2022-08-11T05:59:32;28.50;44.70
64255;DHT22;50593;44.748;19.692;2022-08-11T06:00:00;28.50;44.60
64255;DHT22;50593;44.748;19.692;2022-08-11T06:00:21;28.50;44.70
64255;DHT22;50593;44.748;19.692;2022-08-11T06:00:44;28.50;44.70
64255;DHT22;50593;44.748;19.692;2022-08-11T06:01:05;28.50;44.60
64255;DHT22;50593;44.748;19.692;2022-08-11T06:01:29;28.50;44.60
64255;DHT22;50593;44.748;19.692;2022-08-11T06:01:50;28.50;44.60
64255;DHT22;50593;44.748;19.692;2022-08-11T06:02:11;28.50;44.70
64255;DHT22;50593;44.748;19.692;2022-08-11T06:02:32;28.50;44.60
64255;DHT22;50593;44.748;19.692;2022-08-11T06:02:59;28.50;44.70
64255;DHT22;50593;44.748;19.692;2022-08-11T06:03:26;28.50;44.70
64255;DHT22;50593;44.748;19.692;2022-08-11T06:04:27;28.50;44.70
64255;DHT22;50593;44.748;19.692;2022-08-11T06:04:53;28.50;44.70
64255;DHT22;50593;44.748;19.692;2022-08-11T06:05:16;28.50;44.70
64255;DHT22;50593;44.748;19.692;2022-08-11T06:05:37;28.50;44.60
64255;DHT22;50593;44.748;19.692;2022-08-11T06:06:20;28.50;44.70
64255;DHT22;50593;44.748;19.692;2022-08-11T06:06:51;28.50;44.70
64255;DHT22;50593;44.748;19.692;2022-08-11T06:07:12;28.50;44.70
64255;DHT22;50593;44.748;19.692;2022-08-11T06:08:18;28.50;44.70
64255;DHT22;50593;44.748;19.692;2022-08-11T06:08:46;28.50;44.70
64255;DHT22;50593;44.748;19.692;2022-08-11T06:09:08;28.50;44.60
64255;DHT22;50593;44.748;19.692;2022-08-11T06:09:33;28.50;44.70
64255;DHT22;50593;44.748;19.692;2022-08-11T06:09:54;28.50;44.70
64255;DHT22;50593;44.748;19.692;2022-08-11T06:11:11;28.50;44.60
64255;DHT22;50593;44.748;19.692;2022-08-11T06:11:38;28.50;44.60
64255;DHT22;50593;44.748;19.692;2022-08-11T06:12:22;28.50;44.70
64255;DHT22;50593;44.748;19.692;2022-08-11T06:12:41;28.50;44.70
64255;DHT22;50593;44.748;19.692;2022-08-11T06:13:02;28.50;44.60
64255;DHT22;50593;44.748;19.692;2022-08-11T06:13:26;28.50;44.60
64255;DHT22;50593;44.748;19.692;2022-08-11T06:14:08;28.50;44.60
64255;DHT22;50593;44.748;19.692;2022-08-11T06:14:32;28.50;44.60
64255;DHT22;50593;44.748;19.692;2022-08-11T06:14:54;28.50;44.60
64255;DHT22;50593;44.748;19.692;2022-08-11T06:15:15;28.50;44.50
64255;DHT22;50593;44.748;19.692;2022-08-11T06:15:45;28.50;44.50
64255;DHT22;50593;44.748;19.692;2022-08-11T06:16:06;28.60;44.60
64255;DHT22;50593;44.748;19.692;2022-08-11T06:16:49;28.60;44.60
64255;DHT22;50593;44.748;19.692;2022-08-11T06:17:10;28.60;44.60
64255;DHT22;50593;44.748;19.692;2022-08-11T06:17:52;28.60;44.50
64255;DHT22;50593;44.748;19.692;2022-08-11T06:18:14;28.60;44.50
64255;DHT22;50593;44.748;19.692;2022-08-11T06:18:35;28.60;44.50
64255;DHT22;50593;44.748;19.692;2022-08-11T06:18:56;28.60;44.50
64255;DHT22;50593;44.748;19.692;2022-08-11T06:19:39;28.60;44.40
64255;DHT22;50593;44.748;19.692;2022-08-11T06:20:01;28.50;44.40
64255;DHT22;50593;44.748;19.692;2022-08-11T06:20:23;28.60;44.40
64255;DHT22;50593;44.748;19.692;2022-08-11T06:20:48;28.60;44.40
64255;DHT22;50593;44.748;19.692;2022-08-11T06:21:08;28.60;44.40
64255;DHT22;50593;44.748;19.692;2022-08-11T06:21:32;28.60;44.30